Time,TemperatureF,DewpointF,PressureIn,WindDirection,WindDirectionDegrees,WindSpeedMPH,WindSpeedGustMPH,Humidity,HourlyPrecipIn,Conditions,Clouds,dailyrainin,SoftwareType,DateUTC
2013-03-05 00:01:00,12.0,9.0,30.31,WNW,303,11.0,17.0,86,0.00,,,0.01,,2013-03-05 07:01:00,
2013-03-05 00:11:00,12.0,9.0,30.31,WNW,303,11.0,17.0,86,0.00,,,0.01,,2013-03-05 07:11:00,
2013-03-05 00:22:00,12.0,9.0,30.31,WNW,303,11.0,17.0,86,0.00,,,0.01,,2013-03-05 07:22:00,
2013-03-05 02:21:00,12.0,9.0,30.35,NW,310,13.0,18.0,86,0.00,,,0.00,,2013-03-05 09:21:00,
2013-03-05 02:32:00,12.0,9.0,30.35,NW,312,13.0,18.0,86,0.00,,,0.00,,2013-03-05 09:32:00,
2013-03-05 02:43:00,12.0,9.0,30.35,NW,312,13.0,18.0,86,0.00,,,0.00,,2013-03-05 09:43:00,
2013-03-05 02:52:00,12.0,9.0,30.36,WNW,302,10.0,15.0,86,0.00,,,0.00,,2013-03-05 09:52:00,
2013-03-05 03:01:00,12.0,9.0,30.35,NW,309,9.0,11.0,86,0.00,,,0.00,,2013-03-05 10:01:00,
2013-03-05 03:11:00,12.0,9.0,30.35,NW,309,9.0,11.0,86,0.00,,,0.00,,2013-03-05 10:11:00,
2013-03-05 03:21:00,11.0,8.0,30.35,NW,317,6.0,12.0,86,0.00,,,0.00,,2013-03-05 10:21:00,
2013-03-05 03:32:00,11.0,8.0,30.35,NW,317,6.0,12.0,86,0.00,,,0.00,,2013-03-05 10:32:00,
2013-03-05 03:42:00,11.0,8.0,30.35,NW,317,6.0,12.0,86,0.00,,,0.00,,2013-03-05 10:42:00,
2013-03-05 03:52:00,11.0,8.0,30.35,NW,317,6.0,12.0,86,0.00,,,0.00,,2013-03-05 10:52:00,
2013-03-05 06:02:00,9.0,6.0,30.39,WNW,303,6.0,12.0,87,0.00,,,0.00,,2013-03-05 13:02:00,
2013-03-05 06:11:00,9.0,6.0,30.39,WNW,303,6.0,12.0,87,0.00,,,0.00,,2013-03-05 13:11:00,
2013-03-05 06:21:00,10.0,7.0,30.39,NW,319,3.0,9.0,86,0.00,,,0.00,,2013-03-05 13:21:00,
2013-03-05 06:32:00,9.0,6.0,30.40,North,5,0.0,4.0,86,0.00,,,0.00,,2013-03-05 13:32:00,
2013-03-05 06:42:00,9.0,6.0,30.40,North,5,0.0,4.0,86,0.00,,,0.00,,2013-03-05 13:42:00,
2013-03-05 06:52:00,9.0,6.0,30.40,North,5,0.0,0.0,87,0.00,,,0.00,,2013-03-05 13:52:00,
2013-03-05 07:02:00,9.0,6.0,30.40,North,5,0.0,0.0,87,0.00,,,0.00,,2013-03-05 14:02:00,
2013-03-05 07:11:00,9.0,6.0,30.40,North,5,0.0,0.0,87,0.00,,,0.00,,2013-03-05 14:11:00,
2013-03-05 07:21:00,9.0,6.0,30.40,North,5,0.0,0.0,87,0.00,,,0.00,,2013-03-05 14:21:00,
2013-03-05 09:32:00,12.0,8.0,30.41,SSE,167,3.0,5.0,84,0.00,,,0.00,,2013-03-05 16:32:00,
2013-03-05 09:42:00,12.0,8.0,30.41,SSE,167,3.0,5.0,84,0.00,,,0.00,,2013-03-05 16:42:00,
2013-03-05 09:52:00,12.0,8.0,30.41,SSE,167,3.0,5.0,84,0.00,,,0.00,,2013-03-05 16:52:00,
2013-03-05 10:01:00,13.0,9.0,30.41,SSE,167,2.0,4.0,85,0.00,,,0.00,,2013-03-05 17:01:00,
2013-03-05 10:11:00,13.0,9.0,30.41,SSE,167,2.0,4.0,85,0.00,,,0.00,,2013-03-05 17:11:00,
2013-03-05 10:21:00,14.0,10.0,30.40,South,173,3.0,6.0,84,0.00,,,0.00,,2013-03-05 17:21:00,
2013-03-05 10:32:00,14.0,10.0,30.40,South,173,3.0,5.0,84,0.00,,,0.00,,2013-03-05 17:32:00,
2013-03-05 10:42:00,14.0,10.0,30.40,South,173,3.0,5.0,84,0.00,,,0.00,,2013-03-05 17:42:00,
2013-03-05 10:52:00,14.0,10.0,30.40,South,173,3.0,5.0,84,0.00,,,0.00,,2013-03-05 17:52:00,
2013-03-05 11:02:00,14.0,10.0,30.40,South,173,3.0,5.0,84,0.00,,,0.00,,2013-03-05 18:02:00,
2013-03-05 13:01:00,18.0,13.0,30.36,South,180,3.0,7.0,82,0.00,,,0.00,,2013-03-05 20:01:00,
2013-03-05 13:11:00,18.0,13.0,30.36,South,180,3.0,7.0,82,0.00,,,0.00,,2013-03-05 20:11:00,
2013-03-05 13:21:00,18.0,13.0,30.36,South,180,3.0,7.0,82,0.00,,,0.00,,2013-03-05 20:21:00,
2013-03-05 13:32:00,18.0,13.0,30.36,South,181,3.0,8.0,81,0.00,,,0.00,,2013-03-05 20:32:00,
2013-03-05 13:41:00,19.0,14.0,30.34,South,189,5.0,8.0,80,0.00,,,0.00,,2013-03-05 20:41:00,
2013-03-05 13:42:00,18.0,13.0,30.36,South,181,3.0,8.0,81,0.00,,,0.00,,2013-03-05 20:42:00,
2013-03-05 13:52:00,18.0,13.0,30.36,South,181,3.0,8.0,81,0.00,,,0.00,,2013-03-05 20:52:00,
2013-03-05 14:02:00,19.0,14.0,30.34,South,189,5.0,8.0,80,0.00,,,0.00,,2013-03-05 21:02:00,
2013-03-05 14:11:00,19.0,14.0,30.34,South,189,5.0,8.0,80,0.00,,,0.00,,2013-03-05 21:11:00,
2013-03-05 14:21:00,19.0,14.0,30.34,South,189,5.0,8.0,80,0.00,,,0.00,,2013-03-05 21:21:00,
2013-03-05 14:32:00,19.0,14.0,30.34,South,189,5.0,8.0,80,0.00,,,0.00,,2013-03-05 21:32:00,
2013-03-05 16:53:00,19.0,14.0,30.29,ESE,103,5.0,8.0,79,0.00,,,0.00,,2013-03-05 23:53:00,
2013-03-05 17:01:00,18.0,13.0,30.28,ESE,104,1.0,6.0,79,0.00,,,0.00,,2013-03-06 00:01:00,
2013-03-05 17:11:00,18.0,13.0,30.28,ESE,104,1.0,6.0,79,0.00,,,0.00,,2013-03-06 00:11:00,
2013-03-05 17:21:00,18.0,13.0,30.29,ESE,104,2.0,6.0,79,0.00,,,0.00,,2013-03-06 00:21:00,
2013-03-05 17:32:00,18.0,13.0,30.28,ESE,104,1.0,5.0,80,0.00,,,0.00,,2013-03-06 00:32:00,
2013-03-05 17:42:00,18.0,13.0,30.28,ESE,104,1.0,5.0,80,0.00,,,0.00,,2013-03-06 00:42:00,
2013-03-05 17:52:00,18.0,13.0,30.28,ESE,104,1.0,5.0,80,0.00,,,0.00,,2013-03-06 00:52:00,
2013-03-05 18:02:00,18.0,13.0,30.28,ESE,104,1.0,5.0,80,0.00,,,0.00,,2013-03-06 01:02:00,
2013-03-05 20:22:00,15.0,12.0,30.27,ESE,104,3.0,6.0,86,0.00,,,0.00,,2013-03-06 03:22:00,
2013-03-05 20:32:00,15.0,12.0,30.27,ESE,104,2.0,5.0,86,0.00,,,0.00,,2013-03-06 03:32:00,
2013-03-05 20:42:00,15.0,12.0,30.27,ESE,104,2.0,5.0,86,0.00,,,0.00,,2013-03-06 03:42:00,
2013-03-05 20:52:00,15.0,12.0,30.27,ESE,104,2.0,5.0,86,0.00,,,0.00,,2013-03-06 03:52:00,
2013-03-05 21:02:00,15.0,12.0,30.27,ESE,104,2.0,5.0,86,0.00,,,0.00,,2013-03-06 04:02:00,
2013-03-05 21:11:00,15.0,12.0,30.27,ESE,104,2.0,5.0,86,0.00,,,0.00,,2013-03-06 04:11:00,
2013-03-05 21:21:00,15.0,12.0,30.27,ESE,104,3.0,7.0,86,0.00,,,0.00,,2013-03-06 04:21:00,
2013-03-05 21:32:00,15.0,12.0,30.27,ESE,104,3.0,7.0,86,0.00,,,0.00,,2013-03-06 04:32:00,
2013-03-05 21:41:00,15.0,12.0,30.27,ESE,104,3.0,7.0,86,0.00,,,0.00,,2013-03-06 04:41:00,
2013-03-05 21:52:00,15.0,12.0,30.27,ESE,104,3.0,7.0,86,0.00,,,0.00,,2013-03-06 04:52:00,